sensor_id;sensor_type;location;lat;lon;timestamp;pressure;altitude;pressure_sealevel;temperature;humidity
54808;BME280;40708;50.364;7.550;2022-12-08T00:01:20;100158.66;;;3.92;100.00
54808;BME280;40708;50.364;7.550;2022-12-08T00:03:46;100157.75;;;3.92;100.00
54808;BME280;40708;50.364;7.550;2022-12-08T00:06:24;100149.81;;;3.89;100.00
54808;BME280;40708;50.364;7.550;2022-12-08T00:11:59;100146.31;;;3.88;100.00
54808;BME280;40708;50.364;7.550;2022-12-08T00:14:30;100145.50;;;3.91;100.00
54808;BME280;40708;50.364;7.550;2022-12-08T00:16:56;100142.16;;;3.98;100.00
54808;BME280;40708;50.364;7.550;2022-12-08T00:19:22;100142.97;;;3.95;100.00
54808;BME280;40708;50.364;7.550;2022-12-08T00:21:48;100144.81;;;3.99;100.00
54808;BME280;40708;50.364;7.550;2022-12-08T00:24:13;100134.34;;;4.01;100.00
54808;BME280;40708;50.364;7.550;2022-12-08T00:26:39;100137.00;;;4.02;100.00
54808;BME280;40708;50.364;7.550;2022-12-08T00:29:04;100138.81;;;4.05;100.00
54808;BME280;40708;50.364;7.550;2022-12-08T00:31:30;100128.34;;;4.08;100.00
54808;BME280;40708;50.364;7.550;2022-12-08T00:33:56;100127.50;;;4.07;100.00
54808;BME280;40708;50.364;7.550;2022-12-08T00:36:22;100117.03;;;4.09;100.00
54808;BME280;40708;50.364;7.550;2022-12-08T00:38:47;100120.44;;;4.05;100.00
54808;BME280;40708;50.364;7.550;2022-12-08T00:41:15;100119.66;;;4.09;100.00
54808;BME280;40708;50.364;7.550;2022-12-08T00:43:41;100121.38;;;4.08;100.00
54808;BME280;40708;50.364;7.550;2022-12-08T00:46:07;100118.72;;;4.07;100.00
54808;BME280;40708;50.364;7.550;2022-12-08T00:48:32;100114.25;;;4.03;100.00
54808;BME280;40708;50.364;7.550;2022-12-08T00:50:58;100104.69;;;4.05;100.00
54808;BME280;40708;50.364;7.550;2022-12-08T00:53:23;100106.50;;;4.09;100.00
54808;BME280;40708;50.364;7.550;2022-12-08T00:55:48;100104.72;;;4.06;100.00
54808;BME280;40708;50.364;7.550;2022-12-08T00:58:13;100101.13;;;4.03;100.00
54808;BME280;40708;50.364;7.550;2022-12-08T01:00:42;100103.75;;;4.03;100.00
54808;BME280;40708;50.364;7.550;2022-12-08T01:03:09;100105.53;;;4.04;100.00
54808;BME280;40708;50.364;7.550;2022-12-08T01:05:34;100098.56;;;4.06;100.00
54808;BME280;40708;50.364;7.550;2022-12-08T01:08:00;100101.19;;;4.06;100.00
54808;BME280;40708;50.364;7.550;2022-12-08T01:10:25;100100.38;;;4.08;100.00
54808;BME280;40708;50.364;7.550;2022-12-08T01:12:50;100095.19;;;4.10;100.00
54808;BME280;40708;50.364;7.550;2022-12-08T01:15:15;100096.84;;;4.08;100.00
54808;BME280;40708;50.364;7.550;2022-12-08T01:17:41;100091.56;;;4.05;100.00
54808;BME280;40708;50.364;7.550;2022-12-08T01:20:06;100088.13;;;4.07;100.00
54808;BME280;40708;50.364;7.550;2022-12-08T01:22:33;100081.16;;;4.09;100.00
54808;BME280;40708;50.364;7.550;2022-12-08T01:24:59;100085.50;;;4.07;100.00
54808;BME280;40708;50.364;7.550;2022-12-08T01:27:25;100088.06;;;4.06;100.00
54808;BME280;40708;50.364;7.550;2022-12-08T01:29:50;100087.19;;;4.05;100.00
54808;BME280;40708;50.364;7.550;2022-12-08T01:32:15;100082.75;;;4.03;100.00
54808;BME280;40708;50.364;7.550;2022-12-08T01:34:40;100091.59;;;4.06;100.00
54808;BME280;40708;50.364;7.550;2022-12-08T01:37:06;100100.25;;;4.02;100.00
54808;BME280;40708;50.364;7.550;2022-12-08T01:39:31;100095.00;;;4.02;100.00
54808;BME280;40708;50.364;7.550;2022-12-08T01:41:56;100098.50;;;4.03;100.00
54808;BME280;40708;50.364;7.550;2022-12-08T01:46:47;100081.75;;;3.96;100.00
54808;BME280;40708;50.364;7.550;2022-12-08T01:49:25;100089.66;;;3.98;100.00
54808;BME280;40708;50.364;7.550;2022-12-08T01:52:04;100091.44;;;3.99;100.00
54808;BME280;40708;50.364;7.550;2022-12-08T01:54:38;100087.13;;;4.02;100.00
54808;BME280;40708;50.364;7.550;2022-12-08T01:57:16;100088.88;;;4.02;100.00
54808;BME280;40708;50.364;7.550;2022-12-08T01:59:47;100083.59;;;4.00;100.00
54808;BME280;40708;50.364;7.550;2022-12-08T02:02:15;100086.19;;;3.99;100.00
54808;BME280;40708;50.364;7.550;2022-12-08T02:04:40;100073.78;;;3.92;100.00
54808;BME280;40708;50.364;7.550;2022-12-08T02:07:06;100080.06;;;4.00;100.00
54808;BME280;40708;50.364;7.550;2022-12-08T02:09:34;100080.06;;;3.98;100.00
54808;BME280;40708;50.364;7.550;2022-12-08T02:12:00;100071.22;;;3.95;100.00
54808;BME280;40708;50.364;7.550;2022-12-08T02:14:26;100069.50;;;3.97;100.00
54808;BME280;40708;50.364;7.550;2022-12-08T02:22:39;100057.41;;;4.03;100.00
54808;BME280;40708;50.364;7.550;2022-12-08T02:25:27;100059.13;;;4.03;100.00
54808;BME280;40708;50.364;7.550;2022-12-08T02:31:04;100053.06;;;4.05;100.00
54808;BME280;40708;50.364;7.550;2022-12-08T02:36:28;100047.91;;;4.10;100.00
54808;BME280;40708;50.364;7.550;2022-12-08T02:44:29;100035.78;;;4.15;100.00
54808;BME280;40708;50.364;7.550;2022-12-08T02:47:01;100035.72;;;4.13;100.00
54808;BME280;40708;50.364;7.550;2022-12-08T02:49:32;100031.22;;;4.08;100.00
54808;BME280;40708;50.364;7.550;2022-12-08T02:54:38;100020.06;;;4.18;100.00
54808;BME280;40708;50.364;7.550;2022-12-08T03:00:17;100015.75;;;4.21;100.00
54808;BME280;40708;50.364;7.550;2022-12-08T03:05:15;100013.28;;;4.29;100.00
54808;BME280;40708;50.364;7.550;2022-12-08T03:07:59;100005.38;;;4.28;100.00
54808;BME280;40708;50.364;7.550;2022-12-08T03:10:28;100003.69;;;4.33;100.00
54808;BME280;40708;50.364;7.550;2022-12-08T03:13:05;100002.78;;;4.29;100.00
54808;BME280;40708;50.364;7.550;2022-12-08T03:15:35;100002.88;;;4.35;100.00
54808;BME280;40708;50.364;7.550;2022-12-08T03:18:02;99993.31;;;4.37;100.00
54808;BME280;40708;50.364;7.550;2022-12-08T03:20:29;99998.44;;;4.31;100.00
54808;BME280;40708;50.364;7.550;2022-12-08T03:22:57;99988.78;;;4.30;100.00
54808;BME280;40708;50.364;7.550;2022-12-08T03:25:27;99990.50;;;4.30;100.00
54808;BME280;40708;50.364;7.550;2022-12-08T03:27:55;99990.56;;;4.31;100.00
54808;BME280;40708;50.364;7.550;2022-12-08T03:30:20;99987.06;;;4.32;100.00
54808;BME280;40708;50.364;7.550;2022-12-08T03:32:51;99986.22;;;4.33;100.00
54808;BME280;40708;50.364;7.550;2022-12-08T03:35:23;99973.00;;;4.29;100.00
54808;BME280;40708;50.364;7.550;2022-12-08T03:37:49;99972.19;;;4.33;100.00
54808;BME280;40708;50.364;7.550;2022-12-08T03:40:17;99964.34;;;4.34;100.00
54808;BME280;40708;50.364;7.550;2022-12-08T03:42:44;99955.69;;;4.40;100.00
54808;BME280;40708;50.364;7.550;2022-12-08T03:45:10;99952.13;;;4.35;100.00
54808;BME280;40708;50.364;7.550;2022-12-08T03:47:35;99960.91;;;4.37;100.00
54808;BME280;40708;50.364;7.550;2022-12-08T03:50:00;99959.16;;;4.37;100.00
54808;BME280;40708;50.364;7.550;2022-12-08T03:52:26;99957.44;;;4.39;100.00
54808;BME280;40708;50.364;7.550;2022-12-08T03:54:51;99955.59;;;4.34;100.00
54808;BME280;40708;50.364;7.550;2022-12-08T03:57:16;99948.63;;;4.36;100.00
54808;BME280;40708;50.364;7.550;2022-12-08T03:59:42;99938.09;;;4.36;100.00
54808;BME280;40708;50.364;7.550;2022-12-08T04:02:07;99942.41;;;4.32;100.00
54808;BME280;40708;50.364;7.550;2022-12-08T04:04:32;99945.09;;;4.35;100.00
54808;BME280;40708;50.364;7.550;2022-12-08T04:06:58;99933.81;;;4.39;100.00
54808;BME280;40708;50.364;7.550;2022-12-08T04:09:23;99938.22;;;4.42;100.00
54808;BME280;40708;50.364;7.550;2022-12-08T04:11:48;99929.41;;;4.38;100.00
54808;BME280;40708;50.364;7.550;2022-12-08T04:14:14;99927.66;;;4.37;100.00
54808;BME280;40708;50.364;7.550;2022-12-08T04:16:39;99926.81;;;4.40;100.00
54808;BME280;40708;50.364;7.550;2022-12-08T04:19:05;99920.63;;;4.36;100.00
54808;BME280;40708;50.364;7.550;2022-12-08T04:21:31;99915.47;;;4.44;100.00
54808;BME280;40708;50.364;7.550;2022-12-08T04:23:56;99916.25;;;4.38;100.00
54808;BME280;40708;50.364;7.550;2022-12-08T04:26:21;99911.94;;;4.40;100.00
54808;BME280;40708;50.364;7.550;2022-12-08T04:28:47;99909.34;;;4.43;100.00
54808;BME280;40708;50.364;7.550;2022-12-08T04:31:12;99903.06;;;4.34;100.00
54808;BME280;40708;50.364;7.550;2022-12-08T04:33:37;99905.72;;;4.35;100.00
54808;BME280;40708;50.364;7.550;2022-12-08T04:36:04;99897.78;;;4.32;100.00
54808;BME280;40708;50.364;7.550;2022-12-08T04:38:30;99899.56;;;4.33;100.00
54808;BME280;40708;50.364;7.550;2022-12-08T04:40:55;99897.88;;;4.37;100.00
54808;BME280;40708;50.364;7.550;2022-12-08T04:43:20;99899.59;;;4.35;100.00
54808;BME280;40708;50.364;7.550;2022-12-08T04:45:46;99900.50;;;4.37;100.00
54808;BME280;40708;50.364;7.550;2022-12-08T04:48:11;99899.44;;;4.27;100.00
54808;BME280;40708;50.364;7.550;2022-12-08T04:50:38;99901.22;;;4.30;100.00
54808;BME280;40708;50.364;7.550;2022-12-08T04:53:04;99903.84;;;4.28;100.00
54808;BME280;40708;50.364;7.550;2022-12-08T04:55:29;99902.22;;;4.35;100.00
54808;BME280;40708;50.364;7.550;2022-12-08T04:57:55;99901.34;;;4.34;100.00
54808;BME280;40708;50.364;7.550;2022-12-08T05:00:20;99902.19;;;4.33;100.00
54808;BME280;40708;50.364;7.550;2022-12-08T05:02:46;99899.53;;;4.32;100.00
54808;BME280;40708;50.364;7.550;2022-12-08T05:05:11;99897.81;;;4.35;100.00
54808;BME280;40708;50.364;7.550;2022-12-08T05:07:36;99895.25;;;4.37;100.00
54808;BME280;40708;50.364;7.550;2022-12-08T05:10:02;99889.06;;;4.33;100.00
54808;BME280;40708;50.364;7.550;2022-12-08T05:12:28;99894.38;;;4.38;100.00
54808;BME280;40708;50.364;7.550;2022-12-08T05:14:53;99893.59;;;4.43;100.00
54808;BME280;40708;50.364;7.550;2022-12-08T05:17:18;99893.47;;;4.36;100.00
54808;BME280;40708;50.364;7.550;2022-12-08T05:19:44;99880.53;;;4.48;100.00
54808;BME280;40708;50.364;7.550;2022-12-08T05:22:09;99886.59;;;4.42;100.00
54808;BME280;40708;50.364;7.550;2022-12-08T05:24:35;99883.00;;;4.37;100.00
54808;BME280;40708;50.364;7.550;2022-12-08T05:27:00;99873.41;;;4.41;100.00
54808;BME280;40708;50.364;7.550;2022-12-08T05:29:26;99879.53;;;4.40;100.00
54808;BME280;40708;50.364;7.550;2022-12-08T05:31:51;99872.56;;;4.42;100.00
54808;BME280;40708;50.364;7.550;2022-12-08T05:34:16;99872.50;;;4.39;100.00
54808;BME280;40708;50.364;7.550;2022-12-08T05:36:42;99877.75;;;4.39;100.00
54808;BME280;40708;50.364;7.550;2022-12-08T05:39:10;99870.00;;;4.45;100.00
54808;BME280;40708;50.364;7.550;2022-12-08T05:41:36;99869.78;;;4.33;100.00
54808;BME280;40708;50.364;7.550;2022-12-08T05:44:01;99867.31;;;4.43;100.00
54808;BME280;40708;50.364;7.550;2022-12-08T05:46:26;99862.00;;;4.37;100.00
54808;BME280;40708;50.364;7.550;2022-12-08T05:48:52;99864.63;;;4.39;100.00
54808;BME280;40708;50.364;7.550;2022-12-08T05:51:22;99861.06;;;4.35;100.00
54808;BME280;40708;50.364;7.550;2022-12-08T05:53:49;99856.66;;;4.33;100.00
54808;BME280;40708;50.364;7.550;2022-12-08T05:56:15;99856.69;;;4.34;100.00
54808;BME280;40708;50.364;7.550;2022-12-08T05:58:41;99848.72;;;4.30;100.00
54808;BME280;40708;50.364;7.550;2022-12-08T06:01:12;99856.66;;;4.33;100.00
54808;BME280;40708;50.364;7.550;2022-12-08T06:03:41;99853.91;;;4.25;100.00
54808;BME280;40708;50.364;7.550;2022-12-08T06:06:07;99859.16;;;4.25;100.00
54808;BME280;40708;50.364;7.550;2022-12-08T06:08:32;99857.44;;;4.27;100.00
54808;BME280;40708;50.364;7.550;2022-12-08T06:10:58;99861.84;;;4.28;100.00
54808;BME280;40708;50.364;7.550;2022-12-08T06:13:23;99860.09;;;4.30;100.00
54808;BME280;40708;50.364;7.550;2022-12-08T06:15:48;99857.59;;;4.35;100.00
54808;BME280;40708;50.364;7.550;2022-12-08T06:18:14;99861.84;;;4.28;100.00
54808;BME280;40708;50.364;7.550;2022-12-08T06:20:39;99854.84;;;4.30;100.00
54808;BME280;40708;50.364;7.550;2022-12-08T06:23:04;99851.44;;;4.34;100.00
54808;BME280;40708;50.364;7.550;2022-12-08T06:25:29;99852.22;;;4.30;100.00
54808;BME280;40708;50.364;7.550;2022-12-08T06:27:55;99857.53;;;4.33;100.00
54808;BME280;40708;50.364;7.550;2022-12-08T06:30:20;99853.06;;;4.28;100.00
54808;BME280;40708;50.364;7.550;2022-12-08T06:32:45;99857.53;;;4.32;100.00
54808;BME280;40708;50.364;7.550;2022-12-08T06:35:11;99860.16;;;4.32;100.00
54808;BME280;40708;50.364;7.550;2022-12-08T06:37:36;99863.69;;;4.34;100.00
54808;BME280;40708;50.364;7.550;2022-12-08T06:40:02;99857.53;;;4.32;100.00
54808;BME280;40708;50.364;7.550;2022-12-08T06:42:27;99855.03;;;4.39;100.00
54808;BME280;40708;50.364;7.550;2022-12-08T06:45:08;99854.97;;;4.35;100.00
54808;BME280;40708;50.364;7.550;2022-12-08T06:47:34;99850.59;;;4.37;100.00
54808;BME280;40708;50.364;7.550;2022-12-08T06:49:59;99860.31;;;4.42;100.00
54808;BME280;40708;50.364;7.550;2022-12-08T06:52:24;99861.91;;;4.33;100.00
54808;BME280;40708;50.364;7.550;2022-12-08T06:54:49;99857.59;;;4.36;100.00
54808;BME280;40708;50.364;7.550;2022-12-08T06:57:15;99856.78;;;4.40;100.00
54808;BME280;40708;50.364;7.550;2022-12-08T06:59:40;99855.75;;;4.31;100.00
54808;BME280;40708;50.364;7.550;2022-12-08T07:02:06;99854.03;;;4.33;100.00
54808;BME280;40708;50.364;7.550;2022-12-08T07:04:31;99862.06;;;4.42;100.00
54808;BME280;40708;50.364;7.550;2022-12-08T07:06:56;99854.97;;;4.36;100.00
54808;BME280;40708;50.364;7.550;2022-12-08T07:09:22;99857.53;;;4.32;100.00
54808;BME280;40708;50.364;7.550;2022-12-08T07:11:47;99857.59;;;4.35;100.00
54808;BME280;40708;50.364;7.550;2022-12-08T07:14:12;99856.69;;;4.34;100.00
54808;BME280;40708;50.364;7.550;2022-12-08T07:16:38;99855.81;;;4.35;100.00
54808;BME280;40708;50.364;7.550;2022-12-08T07:19:04;99858.53;;;4.40;100.00
54808;BME280;40708;50.364;7.550;2022-12-08T07:21:29;99863.78;;;4.41;100.00
54808;BME280;40708;50.364;7.550;2022-12-08T07:23:55;99862.91;;;4.39;100.00
54808;BME280;40708;50.364;7.550;2022-12-08T07:26:20;99867.31;;;4.42;100.00
54808;BME280;40708;50.364;7.550;2022-12-08T07:28:45;99866.41;;;4.40;100.00
54808;BME280;40708;50.364;7.550;2022-12-08T07:31:20;99867.25;;;4.39;100.00
54808;BME280;40708;50.364;7.550;2022-12-08T07:33:46;99862.13;;;4.46;100.00
54808;BME280;40708;50.364;7.550;2022-12-08T07:36:12;99860.38;;;4.45;100.00
54808;BME280;40708;50.364;7.550;2022-12-08T07:38:38;99856.78;;;4.40;100.00
54808;BME280;40708;50.364;7.550;2022-12-08T07:41:03;99853.34;;;4.46;100.00
54808;BME280;40708;50.364;7.550;2022-12-08T07:43:29;99857.69;;;4.42;100.00
54808;BME280;40708;50.364;7.550;2022-12-08T07:45:54;99857.75;;;4.47;100.00
54808;BME280;40708;50.364;7.550;2022-12-08T07:48:19;99857.69;;;4.44;100.00
54808;BME280;40708;50.364;7.550;2022-12-08T07:50:45;99860.31;;;4.42;100.00
54808;BME280;40708;50.364;7.550;2022-12-08T07:53:11;99857.69;;;4.42;100.00
54808;BME280;40708;50.364;7.550;2022-12-08T07:55:41;99853.28;;;4.41;100.00
54808;BME280;40708;50.364;7.550;2022-12-08T07:58:07;99853.28;;;4.41;100.00
54808;BME280;40708;50.364;7.550;2022-12-08T08:00:32;99861.22;;;4.46;100.00
54808;BME280;40708;50.364;7.550;2022-12-08T08:02:57;99848.16;;;4.49;100.00
54808;BME280;40708;50.364;7.550;2022-12-08T08:05:23;99854.34;;;4.52;100.00
54808;BME280;40708;50.364;7.550;2022-12-08T08:07:48;99852.53;;;4.48;100.00
54808;BME280;40708;50.364;7.550;2022-12-08T08:10:14;99857.75;;;4.47;100.00
54808;BME280;40708;50.364;7.550;2022-12-08T08:12:39;99852.53;;;4.48;100.00
54808;BME280;40708;50.364;7.550;2022-12-08T08:15:06;99860.44;;;4.48;100.00
54808;BME280;40708;50.364;7.550;2022-12-08T08:17:33;99859.59;;;4.51;100.00
54808;BME280;40708;50.364;7.550;2022-12-08T08:19:58;99860.38;;;4.47;100.00
54808;BME280;40708;50.364;7.550;2022-12-08T08:22:25;99860.44;;;4.51;100.00
54808;BME280;40708;50.364;7.550;2022-12-08T08:24:51;99861.38;;;4.55;100.00
54808;BME280;40708;50.364;7.550;2022-12-08T08:27:16;99854.53;;;4.66;100.00
54808;BME280;40708;50.364;7.550;2022-12-08T08:29:42;99856.19;;;4.58;100.00
54808;BME280;40708;50.364;7.550;2022-12-08T08:32:07;99855.38;;;4.65;100.00
54808;BME280;40708;50.364;7.550;2022-12-08T08:34:32;99853.53;;;4.58;100.00
54808;BME280;40708;50.364;7.550;2022-12-08T08:36:58;99855.47;;;4.71;100.00
54808;BME280;40708;50.364;7.550;2022-12-08T08:39:23;99858.13;;;4.71;100.00
54808;BME280;40708;50.364;7.550;2022-12-08T08:41:48;99862.44;;;4.67;100.00
54808;BME280;40708;50.364;7.550;2022-12-08T08:44:14;99861.59;;;4.68;100.00
54808;BME280;40708;50.364;7.550;2022-12-08T08:46:40;99858.16;;;4.74;100.00
54808;BME280;40708;50.364;7.550;2022-12-08T08:49:05;99859.81;;;4.67;100.00
54808;BME280;40708;50.364;7.550;2022-12-08T08:51:31;99856.44;;;4.74;100.00
54808;BME280;40708;50.364;7.550;2022-12-08T08:53:56;99851.19;;;4.76;100.00
54808;BME280;40708;50.364;7.550;2022-12-08T08:56:21;99855.44;;;4.68;100.00
54808;BME280;40708;50.364;7.550;2022-12-08T08:58:48;99852.84;;;4.71;100.00
54808;BME280;40708;50.364;7.550;2022-12-08T09:01:18;99854.75;;;4.79;100.00
54808;BME280;40708;50.364;7.550;2022-12-08T09:03:44;99854.56;;;4.67;100.00
54808;BME280;40708;50.364;7.550;2022-12-08T09:06:10;99854.75;;;4.79;100.00
54808;BME280;40708;50.364;7.550;2022-12-08T09:08:36;99856.53;;;4.80;100.00
54808;BME280;40708;50.364;7.550;2022-12-08T09:11:01;99849.53;;;4.82;100.00
54808;BME280;40708;50.364;7.550;2022-12-08T09:13:26;99851.31;;;4.84;100.00
54808;BME280;40708;50.364;7.550;2022-12-08T09:15:52;99840.81;;;4.87;100.00
54808;BME280;40708;50.364;7.550;2022-12-08T09:18:17;99854.03;;;4.93;100.00
54808;BME280;40708;50.364;7.550;2022-12-08T09:20:42;99848.81;;;4.96;100.00
54808;BME280;40708;50.364;7.550;2022-12-08T09:23:08;99850.56;;;4.95;100.00
54808;BME280;40708;50.364;7.550;2022-12-08T09:25:33;99852.31;;;4.95;100.00
54808;BME280;40708;50.364;7.550;2022-12-08T09:27:58;99848.78;;;4.93;100.00
54808;BME280;40708;50.364;7.550;2022-12-08T09:30:23;99856.56;;;4.84;100.00
54808;BME280;40708;50.364;7.550;2022-12-08T09:32:49;99858.53;;;5.01;100.00
54808;BME280;40708;50.364;7.550;2022-12-08T09:35:14;99847.09;;;4.98;100.00
54808;BME280;40708;50.364;7.550;2022-12-08T09:37:40;99848.06;;;5.03;100.00
54808;BME280;40708;50.364;7.550;2022-12-08T09:40:05;99849.66;;;4.93;100.00
54808;BME280;40708;50.364;7.550;2022-12-08T09:42:42;99851.53;;;5.03;100.00
54808;BME280;40708;50.364;7.550;2022-12-08T09:45:13;99850.88;;;5.18;100.00
54808;BME280;40708;50.364;7.550;2022-12-08T09:47:44;99841.16;;;5.14;100.00
54808;BME280;40708;50.364;7.550;2022-12-08T09:55:32;99833.44;;;5.27;100.00
54808;BME280;40708;50.364;7.550;2022-12-08T09:58:02;99836.06;;;5.27;100.00
54808;BME280;40708;50.364;7.550;2022-12-08T10:00:29;99829.16;;;5.32;100.00
54808;BME280;40708;50.364;7.550;2022-12-08T10:02:55;99831.81;;;5.37;100.00
54808;BME280;40708;50.364;7.550;2022-12-08T10:05:21;99831.78;;;5.32;100.00
54808;BME280;40708;50.364;7.550;2022-12-08T10:08:12;99813.56;;;5.52;100.00
54808;BME280;40708;50.364;7.550;2022-12-08T10:10:46;99808.50;;;5.72;100.00
54808;BME280;40708;50.364;7.550;2022-12-08T10:13:24;99809.28;;;5.63;100.00
54808;BME280;40708;50.364;7.550;2022-12-08T10:16:10;99804.09;;;5.71;100.00
54808;BME280;40708;50.364;7.550;2022-12-08T10:18:38;99801.56;;;5.78;100.00
54808;BME280;40708;50.364;7.550;2022-12-08T10:21:16;99804.09;;;5.71;100.00
54808;BME280;40708;50.364;7.550;2022-12-08T10:23:56;99791.75;;;5.64;100.00
54808;BME280;40708;50.364;7.550;2022-12-08T10:26:24;99797.06;;;5.68;100.00
54808;BME280;40708;50.364;7.550;2022-12-08T10:28:49;99793.53;;;5.65;100.00
54808;BME280;40708;50.364;7.550;2022-12-08T10:31:17;99782.16;;;5.67;100.00
54808;BME280;40708;50.364;7.550;2022-12-08T10:33:43;99782.94;;;5.60;100.00
54808;BME280;40708;50.364;7.550;2022-12-08T10:36:09;99780.31;;;5.59;100.00
54808;BME280;40708;50.364;7.550;2022-12-08T10:38:36;99778.28;;;5.33;100.00
54808;BME280;40708;50.364;7.550;2022-12-08T10:43:27;99781.69;;;5.23;100.00
54808;BME280;40708;50.364;7.550;2022-12-08T10:45:53;99779.13;;;5.31;100.00
54808;BME280;40708;50.364;7.550;2022-12-08T10:50:53;99777.44;;;5.36;100.00
54808;BME280;40708;50.364;7.550;2022-12-08T10:53:20;99770.47;;;5.38;100.00
54808;BME280;40708;50.364;7.550;2022-12-08T10:58:46;99772.38;;;5.57;100.00
54808;BME280;40708;50.364;7.550;2022-12-08T11:01:22;99760.97;;;5.54;100.00
54808;BME280;40708;50.364;7.550;2022-12-08T11:06:29;99752.31;;;5.67;100.00
54808;BME280;40708;50.364;7.550;2022-12-08T11:08:57;99754.88;;;5.59;100.00
54808;BME280;40708;50.364;7.550;2022-12-08T11:11:59;99769.69;;;5.50;100.00
54808;BME280;40708;50.364;7.550;2022-12-08T11:14:30;99754.94;;;5.65;100.00
54808;BME280;40708;50.364;7.550;2022-12-08T11:17:06;99753.16;;;5.60;100.00
54808;BME280;40708;50.364;7.550;2022-12-08T11:19:43;99751.34;;;5.56;100.00
54808;BME280;40708;50.364;7.550;2022-12-08T11:22:25;99749.56;;;5.52;100.00
54808;BME280;40708;50.364;7.550;2022-12-08T11:25:14;99744.38;;;5.59;100.00
54808;BME280;40708;50.364;7.550;2022-12-08T11:27:43;99750.41;;;5.51;100.00
54808;BME280;40708;50.364;7.550;2022-12-08T11:30:13;99744.22;;;5.46;100.00
54808;BME280;40708;50.364;7.550;2022-12-08T11:32:42;99741.63;;;5.50;100.00
54808;BME280;40708;50.364;7.550;2022-12-08T11:35:18;99736.47;;;5.59;100.00
54808;BME280;40708;50.364;7.550;2022-12-08T11:37:44;99739.09;;;5.61;100.00
54808;BME280;40708;50.364;7.550;2022-12-08T11:40:18;99737.19;;;5.43;100.00
54808;BME280;40708;50.364;7.550;2022-12-08T11:42:55;99727.66;;;5.57;100.00
54808;BME280;40708;50.364;7.550;2022-12-08T11:45:26;99725.16;;;5.69;100.00
54808;BME280;40708;50.364;7.550;2022-12-08T11:48:02;99712.88;;;5.71;100.00
54808;BME280;40708;50.364;7.550;2022-12-08T11:50:41;99713.03;;;5.86;100.00
54808;BME280;40708;50.364;7.550;2022-12-08T11:53:15;99710.28;;;5.79;100.00
54808;BME280;40708;50.364;7.550;2022-12-08T11:55:48;99711.16;;;5.75;100.00
54808;BME280;40708;50.364;7.550;2022-12-08T11:58:46;99706.00;;;5.85;100.00
54808;BME280;40708;50.364;7.550;2022-12-08T12:01:23;99709.44;;;5.78;100.00
54808;BME280;40708;50.364;7.550;2022-12-08T12:12:47;99700.09;;;6.21;100.00
54808;BME280;40708;50.364;7.550;2022-12-08T12:15:43;99687.72;;;6.05;100.00
54808;BME280;40708;50.364;7.550;2022-12-08T12:19:03;99689.47;;;6.05;100.00
54808;BME280;40708;50.364;7.550;2022-12-08T12:21:15;99688.50;;;5.89;100.00
54808;BME280;40708;50.364;7.550;2022-12-08T12:23:47;99682.41;;;5.99;100.00
54808;BME280;40708;50.364;7.550;2022-12-08T12:26:18;99692.00;;;5.89;100.00
54808;BME280;40708;50.364;7.550;2022-12-08T12:28:48;99681.53;;;5.98;100.00
54808;BME280;40708;50.364;7.550;2022-12-08T12:31:18;99679.72;;;5.90;100.00
54808;BME280;40708;50.364;7.550;2022-12-08T12:33:45;99688.47;;;5.86;100.00
54808;BME280;40708;50.364;7.550;2022-12-08T12:36:12;99684.97;;;5.88;100.00
54808;BME280;40708;50.364;7.550;2022-12-08T12:38:48;99675.25;;;5.84;100.00
54808;BME280;40708;50.364;7.550;2022-12-08T12:54:34;99668.28;;;5.88;100.00
54808;BME280;40708;50.364;7.550;2022-12-08T13:02:25;99659.50;;;5.87;100.00
54808;BME280;40708;50.364;7.550;2022-12-08T13:08:07;99666.63;;;5.97;100.00
54808;BME280;40708;50.364;7.550;2022-12-08T13:10:48;99657.84;;;5.97;100.00
54808;BME280;40708;50.364;7.550;2022-12-08T13:13:21;99659.53;;;5.89;100.00
54808;BME280;40708;50.364;7.550;2022-12-08T13:15:52;99659.50;;;5.86;100.00
54808;BME280;40708;50.364;7.550;2022-12-08T13:18:26;99662.28;;;6.06;100.00
54808;BME280;40708;50.364;7.550;2022-12-08T13:21:04;99665.66;;;5.86;100.00
54808;BME280;40708;50.364;7.550;2022-12-08T13:26:45;99656.69;;;5.66;100.00
54808;BME280;40708;50.364;7.550;2022-12-08T13:29:22;99651.41;;;5.63;100.00
54808;BME280;40708;50.364;7.550;2022-12-08T13:31:53;99653.16;;;5.63;100.00
54808;BME280;40708;50.364;7.550;2022-12-08T13:42:20;99657.31;;;5.33;100.00
54808;BME280;40708;50.364;7.550;2022-12-08T13:45:23;99654.75;;;5.38;100.00
54808;BME280;40708;50.364;7.550;2022-12-08T13:47:53;99653.84;;;5.37;100.00
54808;BME280;40708;50.364;7.550;2022-12-08T13:50:25;99658.25;;;5.40;100.00
54808;BME280;40708;50.364;7.550;2022-12-08T13:52:56;99656.47;;;5.39;100.00
54808;BME280;40708;50.364;7.550;2022-12-08T13:55:39;99655.59;;;5.38;100.00
54808;BME280;40708;50.364;7.550;2022-12-08T14:01:14;99656.50;;;5.42;100.00
54808;BME280;40708;50.364;7.550;2022-12-08T14:06:15;99651.25;;;5.43;100.00
54808;BME280;40708;50.364;7.550;2022-12-08T14:08:41;99653.06;;;5.46;100.00
54808;BME280;40708;50.364;7.550;2022-12-08T14:11:14;99658.28;;;5.45;100.00
54808;BME280;40708;50.364;7.550;2022-12-08T14:13:59;99656.50;;;5.40;100.00
54808;BME280;40708;50.364;7.550;2022-12-08T14:16:32;99657.38;;;5.44;100.00
54808;BME280;40708;50.364;7.550;2022-12-08T14:21:39;99660.09;;;5.49;100.00
54808;BME280;40708;50.364;7.550;2022-12-08T14:24:05;99650.41;;;5.49;100.00
54808;BME280;40708;50.364;7.550;2022-12-08T14:26:32;99653.97;;;5.53;100.00
54808;BME280;40708;50.364;7.550;2022-12-08T14:28:58;99647.78;;;5.49;100.00
54808;BME280;40708;50.364;7.550;2022-12-08T14:31:24;99646.94;;;5.55;100.00
54808;BME280;40708;50.364;7.550;2022-12-08T14:33:49;99643.47;;;5.57;100.00
54808;BME280;40708;50.364;7.550;2022-12-08T14:36:15;99639.09;;;5.56;100.00
54808;BME280;40708;50.364;7.550;2022-12-08T14:38:41;99646.94;;;5.53;100.00
54808;BME280;40708;50.364;7.550;2022-12-08T14:41:08;99646.06;;;5.53;100.00